createdAt,value
2022-07-31T13:10:19.784Z,15.70
2022-07-31T13:12:51.158Z,15.67
2022-07-31T13:15:30.224Z,15.61
2022-07-31T13:18:06.172Z,15.65
2022-07-31T13:20:36.482Z,15.61
2022-07-31T13:23:15.396Z,15.55
2022-07-31T13:25:47.119Z,15.54
2022-07-31T13:28:19.564Z,15.60
2022-07-31T13:30:54.614Z,15.60
2022-07-31T13:33:22.617Z,15.55
2022-07-31T13:35:59.634Z,15.56
2022-07-31T13:38:29.807Z,15.62
2022-07-31T13:41:17.868Z,15.61
2022-07-31T13:44:00.082Z,15.60
2022-07-31T13:46:32.355Z,15.62
2022-07-31T13:49:09.802Z,15.59
2022-07-31T13:51:49.968Z,15.63
2022-07-31T13:54:25.756Z,15.63
2022-07-31T13:56:52.900Z,15.64
2022-07-31T13:59:25.003Z,15.65
2022-07-31T14:02:03.849Z,15.65
2022-07-31T14:04:38.298Z,15.67
2022-07-31T14:07:08.377Z,15.68
2022-07-31T14:09:35.309Z,15.65
2022-07-31T14:12:03.549Z,15.63
2022-07-31T14:14:31.396Z,15.62
2022-07-31T14:16:59.044Z,15.59
2022-07-31T14:19:26.888Z,15.57
2022-07-31T14:21:56.733Z,15.56
2022-07-31T14:24:26.905Z,15.55
2022-07-31T14:26:55.282Z,15.54
2022-07-31T14:29:21.649Z,15.52
2022-07-31T14:31:47.917Z,15.53
2022-07-31T14:34:14.179Z,15.52
2022-07-31T14:36:40.449Z,15.53
2022-07-31T14:39:06.800Z,15.54
2022-07-31T14:41:32.999Z,15.54
2022-07-31T14:43:59.836Z,15.54
2022-07-31T14:46:26.116Z,15.54
2022-07-31T14:48:53.764Z,15.53
2022-07-31T14:51:20.051Z,15.53
2022-07-31T14:53:46.748Z,15.52
2022-07-31T14:56:13.145Z,15.50
2022-07-31T14:58:58.200Z,15.49
2022-07-31T15:01:26.921Z,15.49
2022-07-31T15:03:57.688Z,15.50
2022-07-31T15:06:41.397Z,15.50
2022-07-31T15:09:11.578Z,15.49
2022-07-31T15:12:00.208Z,15.48
2022-07-31T15:14:24.230Z,15.48
2022-07-31T15:16:50.585Z,15.49
2022-07-31T15:19:16.953Z,15.48
2022-07-31T15:22:15.759Z,15.48
2022-07-31T15:24:35.153Z,15.47
2022-07-31T15:27:01.402Z,15.46
2022-07-31T15:30:05.823Z,15.46
2022-07-31T15:32:21.725Z,15.46
2022-07-31T15:34:48.008Z,15.45
2022-07-31T15:37:20.247Z,15.46
2022-07-31T15:40:02.292Z,15.46
2022-07-31T15:42:31.308Z,15.46
2022-07-31T15:44:57.730Z,15.47
2022-07-31T15:47:24.133Z,15.47
2022-07-31T15:49:50.475Z,15.48
2022-07-31T15:52:19.112Z,15.48
2022-07-31T15:54:46.326Z,15.49
2022-07-31T15:57:12.802Z,15.52
2022-07-31T15:59:39.086Z,15.53
2022-07-31T16:02:05.968Z,15.53
2022-07-31T16:04:32.548Z,15.55
2022-07-31T16:07:00.180Z,15.55
2022-07-31T16:10:03.432Z,15.54
2022-07-31T16:12:33.134Z,15.55
2022-07-31T16:14:59.469Z,15.56
2022-07-31T16:17:36.998Z,15.56
2022-07-31T16:20:08.324Z,15.57
2022-07-31T16:22:39.627Z,15.57
2022-07-31T16:25:07.580Z,15.58
2022-07-31T16:27:33.891Z,15.58
2022-07-31T16:30:01.937Z,15.58
2022-07-31T16:32:29.513Z,15.58
2022-07-31T16:35:00.209Z,15.58
2022-07-31T16:37:51.138Z,15.58
2022-07-31T16:40:30.270Z,15.58
2022-07-31T16:43:47.183Z,15.58
2022-07-31T16:45:52.318Z,15.58
2022-07-31T16:48:18.723Z,15.56
2022-07-31T16:50:48.129Z,15.57
2022-07-31T16:54:09.826Z,15.57
2022-07-31T16:56:05.889Z,15.56
2022-07-31T16:58:32.097Z,15.57
2022-07-31T17:00:58.442Z,15.56
2022-07-31T17:04:01.649Z,15.56
2022-07-31T17:06:11.017Z,15.56
2022-07-31T17:08:37.522Z,15.57
2022-07-31T17:11:09.668Z,15.57
2022-07-31T17:13:39.171Z,15.57
2022-07-31T17:16:05.456Z,15.56
2022-07-31T17:18:31.708Z,15.57
2022-07-31T17:20:59.127Z,15.57
2022-07-31T17:23:43.247Z,15.56
2022-07-31T17:26:21.129Z,15.55
2022-07-31T17:28:49.785Z,15.55
2022-07-31T17:31:16.524Z,15.54
2022-07-31T17:33:59.013Z,15.53
2022-07-31T17:36:28.447Z,15.53
2022-07-31T17:38:56.018Z,15.51
2022-07-31T17:41:25.401Z,15.51
2022-07-31T17:43:54.133Z,15.51
2022-07-31T17:46:28.260Z,15.50
2022-07-31T17:49:05.241Z,15.50
2022-07-31T17:51:31.558Z,15.50
2022-07-31T17:53:59.218Z,15.50
2022-07-31T17:56:26.362Z,15.51
2022-07-31T17:58:52.902Z,15.50
2022-07-31T18:01:19.370Z,15.51
2022-07-31T18:03:45.699Z,15.52
2022-07-31T18:06:12.468Z,15.53
2022-07-31T18:08:38.772Z,15.54
2022-07-31T18:11:05.841Z,15.55
2022-07-31T18:13:39.128Z,15.56
2022-07-31T18:16:15.722Z,15.57
2022-07-31T18:18:41.933Z,15.57
2022-07-31T18:21:08.281Z,15.58
2022-07-31T18:23:34.562Z,15.57
2022-07-31T18:26:01.966Z,15.58
2022-07-31T18:28:28.273Z,15.56
2022-07-31T18:30:54.559Z,15.57
2022-07-31T18:33:21.461Z,15.54
2022-07-31T18:35:47.793Z,15.54
2022-07-31T18:38:14.045Z,15.53
2022-07-31T18:40:40.331Z,15.52
2022-07-31T18:43:06.858Z,15.51
2022-07-31T18:45:33.107Z,15.49
2022-07-31T18:47:59.363Z,15.49
2022-07-31T18:50:58.344Z,15.48
2022-07-31T18:53:12.580Z,15.46
2022-07-31T18:55:38.837Z,15.45
2022-07-31T18:58:05.409Z,15.44
2022-07-31T19:00:31.626Z,15.44
2022-07-31T19:02:57.958Z,15.43
2022-07-31T19:05:24.293Z,15.42
2022-07-31T19:07:50.600Z,15.41
2022-07-31T19:10:29.609Z,15.40
2022-07-31T19:12:58.769Z,15.39
2022-07-31T19:15:25.011Z,15.38
2022-07-31T19:17:51.223Z,15.37
2022-07-31T19:20:41.017Z,15.35
2022-07-31T19:23:05.721Z,15.34
2022-07-31T19:26:02.005Z,15.32
2022-07-31T19:28:26.646Z,15.31
2022-07-31T19:30:54.104Z,15.30
2022-07-31T19:33:20.417Z,15.28
2022-07-31T19:35:58.561Z,15.29
2022-07-31T19:38:28.218Z,15.28
2022-07-31T19:40:54.526Z,15.28
2022-07-31T19:43:21.369Z,15.28
2022-07-31T19:46:02.691Z,15.26
2022-07-31T19:48:35.752Z,15.25
2022-07-31T19:51:02.083Z,15.25
2022-07-31T19:53:28.350Z,15.24
2022-07-31T19:55:54.582Z,15.24
2022-07-31T19:58:21.195Z,15.21
2022-07-31T20:00:47.815Z,15.22
2022-07-31T20:03:14.145Z,15.21
2022-07-31T20:05:41.039Z,15.19
2022-07-31T20:08:07.327Z,15.18
2022-07-31T20:10:33.563Z,15.17
2022-07-31T20:12:59.885Z,15.17
2022-07-31T20:15:26.277Z,15.15
2022-07-31T20:17:53.266Z,15.14
2022-07-31T20:20:19.549Z,15.14
2022-07-31T20:22:45.829Z,15.13
2022-07-31T20:25:20.141Z,15.12
2022-07-31T20:27:48.598Z,15.11
2022-07-31T20:30:15.078Z,15.10
2022-07-31T20:32:48.649Z,15.10
2022-07-31T20:35:33.006Z,15.10
2022-07-31T20:38:01.779Z,15.08
2022-07-31T20:40:28.237Z,15.07
2022-07-31T20:42:54.670Z,15.05
2022-07-31T20:45:21.248Z,15.04
2022-07-31T20:47:47.442Z,15.03
2022-07-31T20:50:13.870Z,15.02
2022-07-31T20:52:40.156Z,15.01
2022-07-31T20:55:07.217Z,14.99
2022-07-31T20:57:33.474Z,14.97
2022-07-31T20:59:59.656Z,14.96
2022-07-31T21:02:25.909Z,14.95
2022-07-31T21:04:52.245Z,14.94
2022-07-31T21:07:18.461Z,14.93
2022-07-31T21:09:44.914Z,14.91
2022-07-31T21:12:11.213Z,14.89
2022-07-31T21:14:37.509Z,14.89
2022-07-31T21:17:03.806Z,14.88
2022-07-31T21:19:29.998Z,14.86
2022-07-31T21:21:56.645Z,14.85
2022-07-31T21:24:23.187Z,14.83
2022-07-31T21:26:53.262Z,14.82
2022-07-31T21:29:25.117Z,14.81
2022-07-31T21:31:51.671Z,14.79
2022-07-31T21:34:18.333Z,14.78
2022-07-31T21:36:46.809Z,14.76
2022-07-31T21:39:18.805Z,14.75
2022-07-31T21:41:45.712Z,14.73
2022-07-31T21:44:12.204Z,14.71
2022-07-31T21:46:42.042Z,14.69
2022-07-31T21:49:12.669Z,14.67
2022-07-31T21:51:39.571Z,14.64
2022-07-31T21:54:06.678Z,14.61
2022-07-31T21:56:33.123Z,14.59
2022-07-31T21:58:59.346Z,14.56
2022-07-31T22:01:25.773Z,14.53
2022-07-31T22:03:52.231Z,14.50
2022-07-31T22:06:37.039Z,14.47
2022-07-31T22:09:03.401Z,14.42
2022-07-31T22:11:29.871Z,14.39
2022-07-31T22:13:56.395Z,14.35
2022-07-31T22:16:22.623Z,14.31
2022-07-31T22:18:49.822Z,14.27
2022-07-31T22:21:16.403Z,14.25
2022-07-31T22:23:42.741Z,14.23
2022-07-31T22:26:09.266Z,14.22
2022-07-31T22:28:35.984Z,14.21
2022-07-31T22:31:02.296Z,14.22
2022-07-31T22:33:28.641Z,14.21
2022-07-31T22:35:58.471Z,14.22
2022-07-31T22:38:28.456Z,14.21
2022-07-31T22:40:54.849Z,14.21
2022-07-31T22:44:09.962Z,14.22
2022-07-31T22:46:10.559Z,14.22
2022-07-31T22:48:38.279Z,14.23
2022-07-31T22:51:04.749Z,14.23
2022-07-31T22:53:31.155Z,14.24
2022-07-31T22:55:57.362Z,14.24
2022-07-31T22:58:23.674Z,14.24
2022-07-31T23:00:50.207Z,14.24
2022-07-31T23:03:16.731Z,14.24
2022-07-31T23:06:29.112Z,14.23
2022-07-31T23:08:29.264Z,14.22
2022-07-31T23:10:55.505Z,14.21
2022-07-31T23:13:21.718Z,14.21
2022-07-31T23:15:47.979Z,14.19
2022-07-31T23:18:14.201Z,14.16
2022-07-31T23:20:40.562Z,14.13
2022-07-31T23:23:06.839Z,14.10
2022-07-31T23:25:33.134Z,14.08
2022-07-31T23:27:59.424Z,14.04
2022-07-31T23:30:26.777Z,14.00
2022-07-31T23:32:54.616Z,13.97
2022-07-31T23:35:20.797Z,13.93
2022-07-31T23:37:47.163Z,13.90
2022-07-31T23:40:13.457Z,13.87
2022-07-31T23:42:39.717Z,13.85
2022-07-31T23:45:07.998Z,13.83
2022-07-31T23:47:46.005Z,13.79
2022-07-31T23:50:14.399Z,13.77
2022-07-31T23:52:43.685Z,13.75
2022-07-31T23:55:10.182Z,13.72
2022-07-31T23:57:36.695Z,13.70
